sensor_id;sensor_type;location;lat;lon;timestamp;P1;durP1;ratioP1;P2;durP2;ratioP2
44270;SDS011;29963;44.594;11.368;2022-07-29T00:02:20;5.15;;;4.47;;
44270;SDS011;29963;44.594;11.368;2022-07-29T00:04:46;7.00;;;4.53;;
44270;SDS011;29963;44.594;11.368;2022-07-29T00:07:12;7.10;;;5.40;;
44270;SDS011;29963;44.594;11.368;2022-07-29T00:09:37;7.47;;;4.32;;
44270;SDS011;29963;44.594;11.368;2022-07-29T00:12:03;5.40;;;4.15;;
44270;SDS011;29963;44.594;11.368;2022-07-29T00:14:29;5.88;;;5.10;;
44270;SDS011;29963;44.594;11.368;2022-07-29T00:16:55;6.68;;;4.72;;
44270;SDS011;29963;44.594;11.368;2022-07-29T00:19:20;6.95;;;4.47;;
44270;SDS011;29963;44.594;11.368;2022-07-29T00:21:46;4.72;;;4.18;;
44270;SDS011;29963;44.594;11.368;2022-07-29T00:24:12;4.90;;;4.38;;
44270;SDS011;29963;44.594;11.368;2022-07-29T00:26:37;6.72;;;4.53;;
44270;SDS011;29963;44.594;11.368;2022-07-29T00:29:03;4.03;;;3.65;;
44270;SDS011;29963;44.594;11.368;2022-07-29T00:31:29;5.82;;;5.00;;
44270;SDS011;29963;44.594;11.368;2022-07-29T00:33:55;4.90;;;4.45;;
44270;SDS011;29963;44.594;11.368;2022-07-29T00:36:21;5.25;;;4.75;;
44270;SDS011;29963;44.594;11.368;2022-07-29T00:38:48;5.22;;;4.72;;
44270;SDS011;29963;44.594;11.368;2022-07-29T00:41:14;6.70;;;4.63;;
44270;SDS011;29963;44.594;11.368;2022-07-29T00:43:41;4.80;;;4.28;;
44270;SDS011;29963;44.594;11.368;2022-07-29T00:46:07;7.97;;;4.43;;
44270;SDS011;29963;44.594;11.368;2022-07-29T00:48:32;7.13;;;5.70;;
44270;SDS011;29963;44.594;11.368;2022-07-29T00:50:58;6.32;;;4.97;;
44270;SDS011;29963;44.594;11.368;2022-07-29T00:53:26;9.00;;;5.40;;
44270;SDS011;29963;44.594;11.368;2022-07-29T00:55:55;7.88;;;5.57;;
44270;SDS011;29963;44.594;11.368;2022-07-29T00:58:21;5.97;;;5.40;;
44270;SDS011;29963;44.594;11.368;2022-07-29T01:00:47;4.97;;;4.47;;
44270;SDS011;29963;44.594;11.368;2022-07-29T01:03:13;9.85;;;4.97;;
44270;SDS011;29963;44.594;11.368;2022-07-29T01:05:39;5.78;;;4.63;;
44270;SDS011;29963;44.594;11.368;2022-07-29T01:08:07;5.45;;;4.78;;
44270;SDS011;29963;44.594;11.368;2022-07-29T01:10:33;5.70;;;4.68;;
44270;SDS011;29963;44.594;11.368;2022-07-29T01:13:03;6.72;;;5.13;;
44270;SDS011;29963;44.594;11.368;2022-07-29T01:15:29;6.63;;;4.63;;
44270;SDS011;29963;44.594;11.368;2022-07-29T01:18:11;5.50;;;4.85;;
44270;SDS011;29963;44.594;11.368;2022-07-29T01:29:56;5.18;;;4.65;;
44270;SDS011;29963;44.594;11.368;2022-07-29T01:32:26;7.50;;;5.00;;
44270;SDS011;29963;44.594;11.368;2022-07-29T01:34:54;6.28;;;5.32;;
44270;SDS011;29963;44.594;11.368;2022-07-29T01:37:22;5.72;;;5.03;;
44270;SDS011;29963;44.594;11.368;2022-07-29T01:39:55;6.80;;;5.32;;
44270;SDS011;29963;44.594;11.368;2022-07-29T01:47:43;6.28;;;5.03;;
44270;SDS011;29963;44.594;11.368;2022-07-29T01:50:16;6.70;;;5.38;;
44270;SDS011;29963;44.594;11.368;2022-07-29T01:52:53;6.55;;;5.38;;
44270;SDS011;29963;44.594;11.368;2022-07-29T01:55:28;9.38;;;5.30;;
44270;SDS011;29963;44.594;11.368;2022-07-29T01:57:57;5.65;;;5.07;;
44270;SDS011;29963;44.594;11.368;2022-07-29T02:00:25;5.40;;;4.88;;
44270;SDS011;29963;44.594;11.368;2022-07-29T02:02:52;6.78;;;5.75;;
44270;SDS011;29963;44.594;11.368;2022-07-29T02:05:20;9.70;;;5.57;;
44270;SDS011;29963;44.594;11.368;2022-07-29T02:07:48;6.00;;;5.38;;
44270;SDS011;29963;44.594;11.368;2022-07-29T02:10:17;8.25;;;5.47;;
44270;SDS011;29963;44.594;11.368;2022-07-29T02:12:47;7.65;;;4.68;;
44270;SDS011;29963;44.594;11.368;2022-07-29T02:15:17;6.18;;;5.55;;
44270;SDS011;29963;44.594;11.368;2022-07-29T02:17:45;7.78;;;6.60;;
44270;SDS011;29963;44.594;11.368;2022-07-29T02:20:16;8.10;;;6.38;;
44270;SDS011;29963;44.594;11.368;2022-07-29T02:22:42;8.35;;;5.63;;
44270;SDS011;29963;44.594;11.368;2022-07-29T02:25:10;8.27;;;6.10;;
44270;SDS011;29963;44.594;11.368;2022-07-29T02:27:37;8.55;;;5.97;;
44270;SDS011;29963;44.594;11.368;2022-07-29T02:30:04;6.78;;;6.07;;
44270;SDS011;29963;44.594;11.368;2022-07-29T02:32:32;9.95;;;6.53;;
44270;SDS011;29963;44.594;11.368;2022-07-29T02:35:00;7.65;;;6.85;;
44270;SDS011;29963;44.594;11.368;2022-07-29T02:37:27;10.20;;;6.63;;
44270;SDS011;29963;44.594;11.368;2022-07-29T02:39:54;6.85;;;6.25;;
44270;SDS011;29963;44.594;11.368;2022-07-29T02:42:22;7.30;;;6.65;;
44270;SDS011;29963;44.594;11.368;2022-07-29T02:44:51;9.93;;;6.10;;
44270;SDS011;29963;44.594;11.368;2022-07-29T02:49:54;6.40;;;5.80;;
44270;SDS011;29963;44.594;11.368;2022-07-29T02:57:36;9.52;;;6.47;;
44270;SDS011;29963;44.594;11.368;2022-07-29T03:00:09;10.65;;;6.10;;
44270;SDS011;29963;44.594;11.368;2022-07-29T03:02:37;15.10;;;5.95;;
44270;SDS011;29963;44.594;11.368;2022-07-29T03:05:06;7.70;;;5.88;;
44270;SDS011;29963;44.594;11.368;2022-07-29T03:07:35;7.43;;;5.65;;
44270;SDS011;29963;44.594;11.368;2022-07-29T03:10:03;7.38;;;6.60;;
44270;SDS011;29963;44.594;11.368;2022-07-29T03:12:31;9.50;;;7.05;;
44270;SDS011;29963;44.594;11.368;2022-07-29T03:14:57;9.18;;;6.50;;
44270;SDS011;29963;44.594;11.368;2022-07-29T03:17:25;6.30;;;5.55;;
44270;SDS011;29963;44.594;11.368;2022-07-29T03:19:51;8.10;;;5.75;;
44270;SDS011;29963;44.594;11.368;2022-07-29T03:22:17;7.88;;;5.43;;
44270;SDS011;29963;44.594;11.368;2022-07-29T03:24:44;6.50;;;5.75;;
44270;SDS011;29963;44.594;11.368;2022-07-29T03:27:10;7.90;;;7.07;;
44270;SDS011;29963;44.594;11.368;2022-07-29T03:29:35;8.90;;;5.93;;
44270;SDS011;29963;44.594;11.368;2022-07-29T03:32:04;8.15;;;6.28;;
44270;SDS011;29963;44.594;11.368;2022-07-29T03:34:31;5.90;;;5.32;;
44270;SDS011;29963;44.594;11.368;2022-07-29T03:36:56;8.60;;;6.57;;
44270;SDS011;29963;44.594;11.368;2022-07-29T03:39:23;6.78;;;6.07;;
44270;SDS011;29963;44.594;11.368;2022-07-29T03:41:53;12.23;;;5.82;;
44270;SDS011;29963;44.594;11.368;2022-07-29T03:44:21;6.13;;;5.50;;
44270;SDS011;29963;44.594;11.368;2022-07-29T03:46:48;7.95;;;5.68;;
44270;SDS011;29963;44.594;11.368;2022-07-29T03:49:15;9.25;;;4.90;;
44270;SDS011;29963;44.594;11.368;2022-07-29T03:51:43;6.70;;;5.80;;
44270;SDS011;29963;44.594;11.368;2022-07-29T03:54:09;5.95;;;5.35;;
44270;SDS011;29963;44.594;11.368;2022-07-29T03:56:37;13.05;;;5.43;;
44270;SDS011;29963;44.594;11.368;2022-07-29T03:59:05;9.10;;;6.22;;
44270;SDS011;29963;44.594;11.368;2022-07-29T04:01:32;6.60;;;5.53;;
44270;SDS011;29963;44.594;11.368;2022-07-29T04:03:59;5.95;;;4.80;;
44270;SDS011;29963;44.594;11.368;2022-07-29T04:06:26;5.75;;;5.20;;
44270;SDS011;29963;44.594;11.368;2022-07-29T04:08:52;6.38;;;5.70;;
44270;SDS011;29963;44.594;11.368;2022-07-29T04:11:17;7.60;;;5.70;;
44270;SDS011;29963;44.594;11.368;2022-07-29T04:13:43;7.72;;;5.18;;
44270;SDS011;29963;44.594;11.368;2022-07-29T04:16:09;6.13;;;5.53;;
44270;SDS011;29963;44.594;11.368;2022-07-29T04:18:35;9.05;;;5.35;;
44270;SDS011;29963;44.594;11.368;2022-07-29T04:21:00;6.20;;;5.45;;
44270;SDS011;29963;44.594;11.368;2022-07-29T04:23:27;5.97;;;5.13;;
44270;SDS011;29963;44.594;11.368;2022-07-29T04:25:57;8.05;;;5.28;;
44270;SDS011;29963;44.594;11.368;2022-07-29T04:28:26;6.32;;;5.72;;
44270;SDS011;29963;44.594;11.368;2022-07-29T04:30:51;9.80;;;6.10;;
44270;SDS011;29963;44.594;11.368;2022-07-29T04:33:17;8.88;;;4.95;;
44270;SDS011;29963;44.594;11.368;2022-07-29T04:35:43;6.05;;;5.45;;
44270;SDS011;29963;44.594;11.368;2022-07-29T04:38:08;5.75;;;5.25;;
44270;SDS011;29963;44.594;11.368;2022-07-29T04:40:34;11.02;;;5.60;;
44270;SDS011;29963;44.594;11.368;2022-07-29T04:43:00;6.28;;;5.13;;
44270;SDS011;29963;44.594;11.368;2022-07-29T04:45:26;5.97;;;5.38;;
44270;SDS011;29963;44.594;11.368;2022-07-29T04:47:52;6.75;;;6.05;;
44270;SDS011;29963;44.594;11.368;2022-07-29T04:50:18;7.68;;;5.60;;
44270;SDS011;29963;44.594;11.368;2022-07-29T04:52:44;8.40;;;6.30;;
44270;SDS011;29963;44.594;11.368;2022-07-29T04:55:10;6.32;;;5.53;;
44270;SDS011;29963;44.594;11.368;2022-07-29T04:57:35;6.93;;;6.00;;
44270;SDS011;29963;44.594;11.368;2022-07-29T05:00:01;11.25;;;6.47;;
44270;SDS011;29963;44.594;11.368;2022-07-29T05:02:28;7.53;;;6.28;;
44270;SDS011;29963;44.594;11.368;2022-07-29T05:04:54;7.75;;;6.95;;
44270;SDS011;29963;44.594;11.368;2022-07-29T05:07:19;7.20;;;6.43;;
44270;SDS011;29963;44.594;11.368;2022-07-29T05:09:45;9.38;;;7.30;;
44270;SDS011;29963;44.594;11.368;2022-07-29T05:12:11;12.30;;;7.70;;
44270;SDS011;29963;44.594;11.368;2022-07-29T05:14:36;7.43;;;6.72;;
44270;SDS011;29963;44.594;11.368;2022-07-29T05:17:02;9.02;;;6.78;;
44270;SDS011;29963;44.594;11.368;2022-07-29T05:19:28;8.13;;;7.28;;
44270;SDS011;29963;44.594;11.368;2022-07-29T05:21:54;12.27;;;6.78;;
44270;SDS011;29963;44.594;11.368;2022-07-29T05:24:19;8.18;;;7.43;;
44270;SDS011;29963;44.594;11.368;2022-07-29T05:26:45;8.25;;;7.07;;
44270;SDS011;29963;44.594;11.368;2022-07-29T05:29:10;7.78;;;6.88;;
44270;SDS011;29963;44.594;11.368;2022-07-29T05:31:36;10.13;;;7.43;;
44270;SDS011;29963;44.594;11.368;2022-07-29T05:34:02;9.90;;;6.90;;
44270;SDS011;29963;44.594;11.368;2022-07-29T05:36:27;10.75;;;8.27;;
44270;SDS011;29963;44.594;11.368;2022-07-29T05:38:53;8.80;;;7.85;;
44270;SDS011;29963;44.594;11.368;2022-07-29T05:41:19;8.82;;;7.55;;
44270;SDS011;29963;44.594;11.368;2022-07-29T05:43:45;10.15;;;6.90;;
44270;SDS011;29963;44.594;11.368;2022-07-29T05:46:11;8.77;;;7.20;;
44270;SDS011;29963;44.594;11.368;2022-07-29T05:48:37;7.75;;;6.93;;
44270;SDS011;29963;44.594;11.368;2022-07-29T05:51:03;8.52;;;7.72;;
44270;SDS011;29963;44.594;11.368;2022-07-29T05:53:29;12.70;;;8.27;;
44270;SDS011;29963;44.594;11.368;2022-07-29T05:55:55;15.18;;;7.38;;
44270;SDS011;29963;44.594;11.368;2022-07-29T05:58:21;8.48;;;7.25;;
44270;SDS011;29963;44.594;11.368;2022-07-29T06:00:47;9.68;;;7.85;;
44270;SDS011;29963;44.594;11.368;2022-07-29T06:03:12;10.75;;;7.25;;
44270;SDS011;29963;44.594;11.368;2022-07-29T06:05:38;9.52;;;7.38;;
44270;SDS011;29963;44.594;11.368;2022-07-29T06:08:04;9.85;;;7.68;;
44270;SDS011;29963;44.594;11.368;2022-07-29T06:10:32;13.07;;;7.80;;
44270;SDS011;29963;44.594;11.368;2022-07-29T06:12:58;11.23;;;8.57;;
44270;SDS011;29963;44.594;11.368;2022-07-29T06:15:23;8.40;;;7.60;;
44270;SDS011;29963;44.594;11.368;2022-07-29T06:17:49;12.70;;;8.63;;
44270;SDS011;29963;44.594;11.368;2022-07-29T06:20:14;9.75;;;8.57;;
44270;SDS011;29963;44.594;11.368;2022-07-29T06:22:40;10.48;;;7.65;;
44270;SDS011;29963;44.594;11.368;2022-07-29T06:25:09;11.27;;;7.78;;
44270;SDS011;29963;44.594;11.368;2022-07-29T06:27:34;8.23;;;6.75;;
44270;SDS011;29963;44.594;11.368;2022-07-29T06:30:00;10.23;;;7.07;;
44270;SDS011;29963;44.594;11.368;2022-07-29T06:32:26;9.45;;;7.53;;
44270;SDS011;29963;44.594;11.368;2022-07-29T06:34:52;10.07;;;5.93;;
44270;SDS011;29963;44.594;11.368;2022-07-29T06:37:18;12.63;;;6.50;;
44270;SDS011;29963;44.594;11.368;2022-07-29T06:39:44;10.13;;;6.15;;
44270;SDS011;29963;44.594;11.368;2022-07-29T06:42:09;10.40;;;5.72;;
44270;SDS011;29963;44.594;11.368;2022-07-29T06:44:35;10.68;;;6.13;;
44270;SDS011;29963;44.594;11.368;2022-07-29T06:47:01;8.98;;;5.10;;
44270;SDS011;29963;44.594;11.368;2022-07-29T06:49:27;9.70;;;5.38;;
44270;SDS011;29963;44.594;11.368;2022-07-29T06:51:53;18.15;;;6.97;;
44270;SDS011;29963;44.594;11.368;2022-07-29T06:54:20;12.82;;;5.50;;
44270;SDS011;29963;44.594;11.368;2022-07-29T06:56:46;7.47;;;5.50;;
44270;SDS011;29963;44.594;11.368;2022-07-29T06:59:12;8.93;;;5.32;;
44270;SDS011;29963;44.594;11.368;2022-07-29T07:01:39;7.10;;;5.22;;
44270;SDS011;29963;44.594;11.368;2022-07-29T07:04:06;8.50;;;6.60;;
44270;SDS011;29963;44.594;11.368;2022-07-29T07:06:33;9.52;;;5.85;;
44270;SDS011;29963;44.594;11.368;2022-07-29T07:09:00;4.68;;;3.97;;
44270;SDS011;29963;44.594;11.368;2022-07-29T07:11:25;13.45;;;5.70;;
44270;SDS011;29963;44.594;11.368;2022-07-29T07:13:51;10.38;;;5.70;;
44270;SDS011;29963;44.594;11.368;2022-07-29T07:16:18;14.02;;;5.45;;
44270;SDS011;29963;44.594;11.368;2022-07-29T07:18:43;8.77;;;5.40;;
44270;SDS011;29963;44.594;11.368;2022-07-29T07:21:10;8.68;;;6.47;;
44270;SDS011;29963;44.594;11.368;2022-07-29T07:23:36;11.30;;;6.13;;
44270;SDS011;29963;44.594;11.368;2022-07-29T07:26:02;7.72;;;6.30;;
44270;SDS011;29963;44.594;11.368;2022-07-29T07:28:29;6.93;;;6.03;;
44270;SDS011;29963;44.594;11.368;2022-07-29T07:30:55;7.35;;;6.50;;
44270;SDS011;29963;44.594;11.368;2022-07-29T07:33:21;9.52;;;6.00;;
44270;SDS011;29963;44.594;11.368;2022-07-29T07:35:47;11.93;;;6.57;;
44270;SDS011;29963;44.594;11.368;2022-07-29T07:38:15;9.27;;;6.50;;
44270;SDS011;29963;44.594;11.368;2022-07-29T07:40:41;11.25;;;5.78;;
44270;SDS011;29963;44.594;11.368;2022-07-29T07:43:06;11.35;;;6.28;;
44270;SDS011;29963;44.594;11.368;2022-07-29T07:45:32;11.70;;;6.53;;
44270;SDS011;29963;44.594;11.368;2022-07-29T07:47:58;10.07;;;5.95;;
44270;SDS011;29963;44.594;11.368;2022-07-29T07:50:24;10.50;;;6.28;;
44270;SDS011;29963;44.594;11.368;2022-07-29T07:52:54;7.25;;;6.45;;
44270;SDS011;29963;44.594;11.368;2022-07-29T07:55:23;12.63;;;6.53;;
44270;SDS011;29963;44.594;11.368;2022-07-29T07:57:49;10.93;;;5.45;;
44270;SDS011;29963;44.594;11.368;2022-07-29T08:00:15;7.32;;;6.40;;
44270;SDS011;29963;44.594;11.368;2022-07-29T08:02:42;8.88;;;5.80;;
44270;SDS011;29963;44.594;11.368;2022-07-29T08:05:08;9.43;;;5.72;;
44270;SDS011;29963;44.594;11.368;2022-07-29T08:07:35;6.80;;;6.10;;
44270;SDS011;29963;44.594;11.368;2022-07-29T08:10:00;8.43;;;5.85;;
44270;SDS011;29963;44.594;11.368;2022-07-29T08:12:26;6.40;;;4.80;;
44270;SDS011;29963;44.594;11.368;2022-07-29T08:14:52;8.48;;;6.03;;
44270;SDS011;29963;44.594;11.368;2022-07-29T08:17:18;9.20;;;6.20;;
44270;SDS011;29963;44.594;11.368;2022-07-29T08:19:43;6.05;;;5.45;;
44270;SDS011;29963;44.594;11.368;2022-07-29T08:22:09;6.93;;;6.05;;
44270;SDS011;29963;44.594;11.368;2022-07-29T08:24:35;10.65;;;6.53;;
44270;SDS011;29963;44.594;11.368;2022-07-29T08:27:12;10.15;;;7.60;;
44270;SDS011;29963;44.594;11.368;2022-07-29T08:29:39;9.38;;;5.32;;
44270;SDS011;29963;44.594;11.368;2022-07-29T08:32:05;11.13;;;6.35;;
44270;SDS011;29963;44.594;11.368;2022-07-29T08:34:31;13.73;;;5.45;;
44270;SDS011;29963;44.594;11.368;2022-07-29T08:36:57;13.68;;;7.57;;
44270;SDS011;29963;44.594;11.368;2022-07-29T08:39:23;12.43;;;6.10;;
44270;SDS011;29963;44.594;11.368;2022-07-29T08:41:50;8.15;;;6.43;;
44270;SDS011;29963;44.594;11.368;2022-07-29T08:44:17;7.85;;;4.90;;
44270;SDS011;29963;44.594;11.368;2022-07-29T08:46:47;7.70;;;5.00;;
44270;SDS011;29963;44.594;11.368;2022-07-29T08:49:14;8.98;;;6.05;;
44270;SDS011;29963;44.594;11.368;2022-07-29T08:51:40;7.95;;;6.07;;
44270;SDS011;29963;44.594;11.368;2022-07-29T08:54:08;8.02;;;4.97;;
44270;SDS011;29963;44.594;11.368;2022-07-29T08:56:35;8.38;;;5.72;;
44270;SDS011;29963;44.594;11.368;2022-07-29T08:59:04;10.55;;;6.72;;
44270;SDS011;29963;44.594;11.368;2022-07-29T09:01:33;10.52;;;6.25;;
44270;SDS011;29963;44.594;11.368;2022-07-29T09:04:02;6.70;;;5.53;;
44270;SDS011;29963;44.594;11.368;2022-07-29T09:06:31;5.72;;;4.28;;
44270;SDS011;29963;44.594;11.368;2022-07-29T09:08:59;8.35;;;5.95;;
44270;SDS011;29963;44.594;11.368;2022-07-29T09:11:26;14.10;;;5.50;;
44270;SDS011;29963;44.594;11.368;2022-07-29T09:13:52;9.13;;;4.53;;
44270;SDS011;29963;44.594;11.368;2022-07-29T09:16:17;11.68;;;5.10;;
44270;SDS011;29963;44.594;11.368;2022-07-29T09:18:44;10.52;;;4.63;;
44270;SDS011;29963;44.594;11.368;2022-07-29T09:21:12;5.70;;;4.63;;
44270;SDS011;29963;44.594;11.368;2022-07-29T09:24:16;6.10;;;4.85;;
44270;SDS011;29963;44.594;11.368;2022-07-29T09:26:42;9.80;;;5.07;;
44270;SDS011;29963;44.594;11.368;2022-07-29T09:29:21;7.90;;;4.45;;
44270;SDS011;29963;44.594;11.368;2022-07-29T09:31:49;5.32;;;4.50;;
44270;SDS011;29963;44.594;11.368;2022-07-29T09:34:17;7.50;;;4.78;;
44270;SDS011;29963;44.594;11.368;2022-07-29T09:36:56;7.53;;;4.45;;
44270;SDS011;29963;44.594;11.368;2022-07-29T09:39:29;6.25;;;3.33;;
44270;SDS011;29963;44.594;11.368;2022-07-29T09:41:59;7.55;;;4.10;;
44270;SDS011;29963;44.594;11.368;2022-07-29T09:44:26;4.20;;;3.80;;
44270;SDS011;29963;44.594;11.368;2022-07-29T09:47:05;5.22;;;4.20;;
44270;SDS011;29963;44.594;11.368;2022-07-29T09:49:31;10.02;;;4.07;;
44270;SDS011;29963;44.594;11.368;2022-07-29T09:52:09;5.60;;;4.43;;
44270;SDS011;29963;44.594;11.368;2022-07-29T09:54:36;7.10;;;3.53;;
44270;SDS011;29963;44.594;11.368;2022-07-29T09:57:06;5.47;;;4.40;;
44270;SDS011;29963;44.594;11.368;2022-07-29T09:59:55;5.53;;;3.83;;
44270;SDS011;29963;44.594;11.368;2022-07-29T10:02:32;4.20;;;3.72;;
44270;SDS011;29963;44.594;11.368;2022-07-29T10:05:02;7.43;;;4.40;;
44270;SDS011;29963;44.594;11.368;2022-07-29T10:10:30;5.90;;;4.55;;
44270;SDS011;29963;44.594;11.368;2022-07-29T10:13:03;4.05;;;3.67;;
44270;SDS011;29963;44.594;11.368;2022-07-29T10:15:31;4.53;;;4.05;;
44270;SDS011;29963;44.594;11.368;2022-07-29T10:17:58;5.03;;;4.15;;
44270;SDS011;29963;44.594;11.368;2022-07-29T10:20:25;4.72;;;3.80;;
44270;SDS011;29963;44.594;11.368;2022-07-29T10:22:52;6.00;;;3.88;;
44270;SDS011;29963;44.594;11.368;2022-07-29T10:25:19;4.80;;;2.92;;
44270;SDS011;29963;44.594;11.368;2022-07-29T10:27:46;5.43;;;3.38;;
44270;SDS011;29963;44.594;11.368;2022-07-29T10:30:13;5.30;;;3.63;;
44270;SDS011;29963;44.594;11.368;2022-07-29T10:38:21;6.78;;;3.78;;
44270;SDS011;29963;44.594;11.368;2022-07-29T10:43:51;3.80;;;3.50;;
44270;SDS011;29963;44.594;11.368;2022-07-29T10:46:26;5.60;;;3.30;;
44270;SDS011;29963;44.594;11.368;2022-07-29T10:54:15;4.80;;;3.53;;
44270;SDS011;29963;44.594;11.368;2022-07-29T10:57:14;5.95;;;3.63;;
44270;SDS011;29963;44.594;11.368;2022-07-29T10:59:43;3.20;;;2.90;;
44270;SDS011;29963;44.594;11.368;2022-07-29T11:07:36;6.95;;;4.00;;
44270;SDS011;29963;44.594;11.368;2022-07-29T11:20:35;4.55;;;3.25;;
44270;SDS011;29963;44.594;11.368;2022-07-29T11:23:01;4.05;;;3.60;;
44270;SDS011;29963;44.594;11.368;2022-07-29T11:25:42;6.30;;;3.80;;
44270;SDS011;29963;44.594;11.368;2022-07-29T11:28:11;4.20;;;3.63;;
44270;SDS011;29963;44.594;11.368;2022-07-29T11:30:48;5.30;;;4.00;;
44270;SDS011;29963;44.594;11.368;2022-07-29T11:38:38;4.50;;;4.10;;
44270;SDS011;29963;44.594;11.368;2022-07-29T11:41:21;6.70;;;4.13;;
44270;SDS011;29963;44.594;11.368;2022-07-29T11:43:58;4.47;;;4.03;;
44270;SDS011;29963;44.594;11.368;2022-07-29T11:49:20;4.32;;;3.63;;
44270;SDS011;29963;44.594;11.368;2022-07-29T11:51:52;4.72;;;3.15;;
44270;SDS011;29963;44.594;11.368;2022-07-29T11:54:25;3.50;;;3.15;;
44270;SDS011;29963;44.594;11.368;2022-07-29T11:56:55;6.68;;;3.60;;
44270;SDS011;29963;44.594;11.368;2022-07-29T11:59:23;4.18;;;3.78;;
44270;SDS011;29963;44.594;11.368;2022-07-29T12:01:53;4.63;;;3.60;;
44270;SDS011;29963;44.594;11.368;2022-07-29T12:04:23;4.78;;;3.97;;
44270;SDS011;29963;44.594;11.368;2022-07-29T12:06:50;3.65;;;2.90;;
44270;SDS011;29963;44.594;11.368;2022-07-29T12:09:16;6.72;;;3.17;;
44270;SDS011;29963;44.594;11.368;2022-07-29T12:11:42;4.53;;;3.83;;
44270;SDS011;29963;44.594;11.368;2022-07-29T12:14:08;6.22;;;4.65;;
44270;SDS011;29963;44.594;11.368;2022-07-29T12:16:37;7.32;;;4.25;;
44270;SDS011;29963;44.594;11.368;2022-07-29T12:19:03;6.40;;;3.53;;
44270;SDS011;29963;44.594;11.368;2022-07-29T12:21:42;5.57;;;4.20;;
44270;SDS011;29963;44.594;11.368;2022-07-29T12:24:12;7.75;;;3.25;;
44270;SDS011;29963;44.594;11.368;2022-07-29T12:26:48;5.10;;;2.67;;
44270;SDS011;29963;44.594;11.368;2022-07-29T12:29:15;5.07;;;3.35;;
44270;SDS011;29963;44.594;11.368;2022-07-29T12:31:42;6.57;;;4.00;;
44270;SDS011;29963;44.594;11.368;2022-07-29T12:34:09;4.40;;;3.00;;
44270;SDS011;29963;44.594;11.368;2022-07-29T12:36:36;5.57;;;3.25;;
44270;SDS011;29963;44.594;11.368;2022-07-29T12:39:02;3.53;;;2.67;;
44270;SDS011;29963;44.594;11.368;2022-07-29T12:41:28;3.55;;;3.25;;
44270;SDS011;29963;44.594;11.368;2022-07-29T12:43:57;5.30;;;2.80;;
44270;SDS011;29963;44.594;11.368;2022-07-29T12:46:23;6.30;;;3.03;;
44270;SDS011;29963;44.594;11.368;2022-07-29T12:48:52;8.13;;;3.80;;
44270;SDS011;29963;44.594;11.368;2022-07-29T12:54:06;3.25;;;2.72;;
44270;SDS011;29963;44.594;11.368;2022-07-29T12:56:38;7.38;;;3.63;;
44270;SDS011;29963;44.594;11.368;2022-07-29T12:59:14;6.20;;;3.38;;
44270;SDS011;29963;44.594;11.368;2022-07-29T13:01:44;3.53;;;2.92;;
44270;SDS011;29963;44.594;11.368;2022-07-29T13:04:23;5.57;;;3.25;;
44270;SDS011;29963;44.594;11.368;2022-07-29T13:06:59;4.03;;;2.80;;
44270;SDS011;29963;44.594;11.368;2022-07-29T13:09:36;6.45;;;3.55;;
44270;SDS011;29963;44.594;11.368;2022-07-29T13:12:05;5.57;;;3.67;;
44270;SDS011;29963;44.594;11.368;2022-07-29T13:14:39;4.57;;;4.18;;
44270;SDS011;29963;44.594;11.368;2022-07-29T13:19:45;4.35;;;2.83;;
44270;SDS011;29963;44.594;11.368;2022-07-29T13:22:13;5.82;;;3.83;;
44270;SDS011;29963;44.594;11.368;2022-07-29T13:24:50;4.10;;;3.53;;
44270;SDS011;29963;44.594;11.368;2022-07-29T13:27:19;8.13;;;3.22;;
44270;SDS011;29963;44.594;11.368;2022-07-29T13:29:49;4.65;;;4.05;;
44270;SDS011;29963;44.594;11.368;2022-07-29T13:32:18;5.50;;;3.05;;
44270;SDS011;29963;44.594;11.368;2022-07-29T13:34:45;3.20;;;2.90;;
44270;SDS011;29963;44.594;11.368;2022-07-29T13:37:10;5.22;;;3.45;;
44270;SDS011;29963;44.594;11.368;2022-07-29T13:39:36;5.85;;;3.70;;
44270;SDS011;29963;44.594;11.368;2022-07-29T13:42:03;7.20;;;3.05;;
44270;SDS011;29963;44.594;11.368;2022-07-29T13:44:29;3.92;;;3.42;;
44270;SDS011;29963;44.594;11.368;2022-07-29T13:46:55;5.63;;;3.22;;
44270;SDS011;29963;44.594;11.368;2022-07-29T13:49:21;3.70;;;3.25;;
44270;SDS011;29963;44.594;11.368;2022-07-29T13:51:48;6.38;;;3.70;;
44270;SDS011;29963;44.594;11.368;2022-07-29T13:54:14;3.70;;;3.28;;
44270;SDS011;29963;44.594;11.368;2022-07-29T13:56:40;8.82;;;3.53;;
44270;SDS011;29963;44.594;11.368;2022-07-29T13:59:05;6.22;;;3.08;;
44270;SDS011;29963;44.594;11.368;2022-07-29T14:01:32;4.25;;;3.17;;
44270;SDS011;29963;44.594;11.368;2022-07-29T14:04:01;11.60;;;3.90;;
44270;SDS011;29963;44.594;11.368;2022-07-29T14:06:27;5.22;;;3.25;;
44270;SDS011;29963;44.594;11.368;2022-07-29T14:08:53;5.10;;;3.78;;
44270;SDS011;29963;44.594;11.368;2022-07-29T14:11:19;6.82;;;3.40;;
44270;SDS011;29963;44.594;11.368;2022-07-29T14:13:44;3.53;;;3.20;;
44270;SDS011;29963;44.594;11.368;2022-07-29T14:16:10;5.00;;;3.33;;
44270;SDS011;29963;44.594;11.368;2022-07-29T14:18:39;5.20;;;3.33;;
44270;SDS011;29963;44.594;11.368;2022-07-29T14:21:04;4.35;;;3.40;;
44270;SDS011;29963;44.594;11.368;2022-07-29T14:23:30;3.90;;;3.17;;
44270;SDS011;29963;44.594;11.368;2022-07-29T14:25:56;3.97;;;3.58;;
44270;SDS011;29963;44.594;11.368;2022-07-29T14:28:21;3.92;;;3.55;;
44270;SDS011;29963;44.594;11.368;2022-07-29T14:30:47;6.35;;;3.35;;
44270;SDS011;29963;44.594;11.368;2022-07-29T14:33:13;5.57;;;3.38;;
44270;SDS011;29963;44.594;11.368;2022-07-29T14:35:38;7.32;;;3.80;;
44270;SDS011;29963;44.594;11.368;2022-07-29T14:38:04;4.32;;;3.53;;
44270;SDS011;29963;44.594;11.368;2022-07-29T14:40:30;4.22;;;3.25;;
44270;SDS011;29963;44.594;11.368;2022-07-29T14:42:55;6.13;;;3.70;;
44270;SDS011;29963;44.594;11.368;2022-07-29T14:45:21;3.88;;;3.40;;
44270;SDS011;29963;44.594;11.368;2022-07-29T14:47:47;8.73;;;3.78;;
44270;SDS011;29963;44.594;11.368;2022-07-29T14:50:15;5.57;;;3.67;;
44270;SDS011;29963;44.594;11.368;2022-07-29T14:52:40;5.82;;;3.65;;
44270;SDS011;29963;44.594;11.368;2022-07-29T14:55:06;6.43;;;3.47;;
44270;SDS011;29963;44.594;11.368;2022-07-29T14:57:32;3.90;;;3.47;;
44270;SDS011;29963;44.594;11.368;2022-07-29T14:59:58;3.33;;;3.03;;
44270;SDS011;29963;44.594;11.368;2022-07-29T15:02:27;8.85;;;3.50;;
44270;SDS011;29963;44.594;11.368;2022-07-29T15:04:53;9.25;;;3.45;;
44270;SDS011;29963;44.594;11.368;2022-07-29T15:07:19;7.30;;;4.53;;
44270;SDS011;29963;44.594;11.368;2022-07-29T15:09:45;7.13;;;4.38;;
44270;SDS011;29963;44.594;11.368;2022-07-29T15:12:10;9.10;;;3.10;;
44270;SDS011;29963;44.594;11.368;2022-07-29T15:14:36;6.53;;;3.40;;
44270;SDS011;29963;44.594;11.368;2022-07-29T15:17:02;5.93;;;3.63;;
44270;SDS011;29963;44.594;11.368;2022-07-29T15:19:28;7.43;;;4.82;;
44270;SDS011;29963;44.594;11.368;2022-07-29T15:21:53;14.38;;;4.25;;
44270;SDS011;29963;44.594;11.368;2022-07-29T15:24:19;8.48;;;3.83;;
44270;SDS011;29963;44.594;11.368;2022-07-29T15:26:45;6.95;;;4.53;;
44270;SDS011;29963;44.594;11.368;2022-07-29T15:29:14;7.95;;;4.65;;
44270;SDS011;29963;44.594;11.368;2022-07-29T15:31:40;13.23;;;5.50;;
44270;SDS011;29963;44.594;11.368;2022-07-29T15:34:06;11.35;;;5.75;;
44270;SDS011;29963;44.594;11.368;2022-07-29T15:36:32;10.57;;;5.70;;
44270;SDS011;29963;44.594;11.368;2022-07-29T15:38:58;8.20;;;5.18;;
44270;SDS011;29963;44.594;11.368;2022-07-29T15:41:23;8.00;;;5.18;;
44270;SDS011;29963;44.594;11.368;2022-07-29T15:43:49;10.77;;;5.15;;
44270;SDS011;29963;44.594;11.368;2022-07-29T15:46:16;9.20;;;5.30;;